Time;durP1;ratioP1;P1;durP2;ratioP2;P2;SDS_P1;SDS_P2;PMS_P1;PMS_P2;Temp;Humidity;BMP_temperature;BMP_pressure;BME280_temperature;BME280_humidity;BME280_pressure;Samples;Min_cycle;Max_cycle;Signal;HPM_P1;HPM_P2
2021/05/20 00:01:52;;;;;;;0.30;0.10;;;5.20;99.60;;;;;;21154877;28;20043;-48
2021/05/20 00:11:54;;;;;;;0.93;0.22;;;5.20;98.70;;;;;;21155652;28;20040;-48
2021/05/20 00:21:56;;;;;;;1.52;0.10;;;5.30;97.20;;;;;;21083532;28;20114;-48
2021/05/20 00:31:58;;;;;;;0.15;0.05;;;5.60;97.30;;;;;;21071288;28;20411;-48
2021/05/20 00:42:10;;;;;;;0.10;0.10;;;5.40;96.00;;;;;;21069335;28;20048;-48
2021/05/20 00:52:13;;;;;;;1.85;0.38;;;5.30;96.60;;;;;;21052988;28;20094;-49
2021/05/20 01:02:15;;;;;;;2.10;0.10;;;5.30;96.70;;;;;;21081916;28;20044;-48
2021/05/20 01:12:17;;;;;;;1.25;0.03;;;5.10;96.10;;;;;;21082826;28;20051;-49
2021/05/20 01:22:19;;;;;;;0.65;0.10;;;5.00;96.10;;;;;;21137502;28;20040;-48
2021/05/20 01:32:21;;;;;;;0.40;0.13;;;5.20;95.70;;;;;;21166057;28;20048;-48
2021/05/20 01:42:22;;;;;;;0.00;0.00;;;5.30;95.60;;;;;;21165845;28;20081;-48
2021/05/20 01:52:24;;;;;;;0.25;0.08;;;5.20;95.00;;;;;;21166482;28;20050;-48
2021/05/20 02:02:26;;;;;;;0.25;0.10;;;5.10;95.70;;;;;;21163987;28;20039;-48
2021/05/20 02:12:28;;;;;;;0.28;0.00;;;5.10;94.70;;;;;;21154144;28;20035;-48
2021/05/20 02:22:30;;;;;;;0.38;0.03;;;5.00;95.30;;;;;;21162057;28;20048;-48
2021/05/20 02:32:34;;;;;;;0.70;0.00;;;5.00;95.40;;;;;;21161062;28;20073;-48
2021/05/20 02:42:36;;;;;;;0.15;0.10;;;4.90;94.60;;;;;;21160729;28;20093;-48
2021/05/20 02:52:43;;;;;;;0.32;0.00;;;5.00;94.10;;;;;;21159425;28;20051;-48
2021/05/20 03:02:47;;;;;;;0.98;0.03;;;5.00;94.20;;;;;;21160418;28;20043;-48
2021/05/20 03:12:49;;;;;;;0.05;0.00;;;5.00;93.90;;;;;;21158096;28;20047;-48
2021/05/20 03:22:51;;;;;;;1.30;0.00;;;5.20;92.90;;;;;;21157290;28;20043;-48
2021/05/20 03:32:53;;;;;;;1.65;0.17;;;5.30;93.10;;;;;;21156730;28;20377;-48
2021/05/20 03:42:55;;;;;;;0.77;0.10;;;5.10;92.80;;;;;;21156271;28;20070;-48
2021/05/20 03:53:00;;;;;;;0.13;0.00;;;5.30;92.80;;;;;;21156802;28;20100;-49
2021/05/20 04:03:02;;;;;;;0.45;0.03;;;5.30;92.90;;;;;;21153880;28;20043;-48
2021/05/20 04:13:03;;;;;;;0.10;0.00;;;5.30;92.50;;;;;;21155173;28;20385;-46
2021/05/20 04:23:05;;;;;;;1.45;0.10;;;5.40;93.30;;;;;;21137448;28;20500;-48
2021/05/20 04:33:07;;;;;;;1.65;0.15;;;5.30;93.60;;;;;;21161853;28;20073;-48
2021/05/20 04:43:09;;;;;;;0.32;0.10;;;5.40;93.80;;;;;;21168306;28;20044;-49
2021/05/20 04:53:11;;;;;;;0.10;0.00;;;5.80;93.10;;;;;;21169149;28;20051;-48
2021/05/20 05:03:13;;;;;;;0.00;0.00;;;5.80;93.00;;;;;;21169718;27;20499;-48
2021/05/20 05:13:18;;;;;;;0.13;0.00;;;5.90;92.50;;;;;;21169408;28;20039;-48
2021/05/20 05:23:20;;;;;;;0.35;0.05;;;6.20;91.80;;;;;;21167041;28;20035;-49
2021/05/20 05:33:23;;;;;;;0.10;0.00;;;6.30;91.60;;;;;;21166897;28;20043;-51
2021/05/20 05:43:25;;;;;;;0.00;0.00;;;6.50;91.30;;;;;;21163990;28;20044;-48
2021/05/20 05:53:28;;;;;;;0.30;0.00;;;6.60;91.20;;;;;;21164127;28;20408;-48
2021/05/20 06:03:33;;;;;;;0.30;0.00;;;6.60;90.30;;;;;;21164671;28;20043;-51
2021/05/20 06:13:34;;;;;;;0.52;0.00;;;6.90;90.30;;;;;;21163323;28;20039;-50
2021/05/20 06:23:36;;;;;;;0.30;0.08;;;8.40;87.40;;;;;;21161344;28;20060;-49
2021/05/20 06:33:38;;;;;;;0.15;0.10;;;12.00;74.20;;;;;;21161439;28;20067;-49
2021/05/20 06:43:40;;;;;;;0.57;0.10;;;13.40;64.60;;;;;;21160390;28;20043;-49
2021/05/20 06:53:41;;;;;;;0.10;0.10;;;13.30;62.60;;;;;;21160560;28;20044;-53
2021/05/20 07:03:44;;;;;;;0.10;0.00;;;13.30;59.30;;;;;;21157798;28;20044;-47
2021/05/20 07:13:47;;;;;;;0.43;0.10;;;13.60;60.10;;;;;;21155543;28;20043;-48
2021/05/20 07:23:49;;;;;;;0.10;0.10;;;13.50;59.00;;;;;;21156495;28;20382;-50
2021/05/20 07:33:50;;;;;;;0.00;0.00;;;13.30;61.00;;;;;;21156563;28;20554;-50
2021/05/20 07:43:52;;;;;;;0.00;0.00;;;13.10;63.10;;;;;;21156967;28;20084;-46
2021/05/20 07:53:54;;;;;;;0.22;0.10;;;13.50;58.40;;;;;;21156428;28;20047;-48
2021/05/20 08:04:09;;;;;;;0.25;0.08;;;13.30;61.90;;;;;;21156662;28;20081;-47
2021/05/20 08:14:11;;;;;;;0.30;0.05;;;13.20;58.70;;;;;;21172684;28;20044;-47
2021/05/20 08:24:13;;;;;;;0.05;0.03;;;12.80;61.30;;;;;;21171259;28;20061;-46
2021/05/20 08:34:15;;;;;;;0.13;0.00;;;12.30;64.90;;;;;;21172050;28;20035;-46
2021/05/20 08:44:17;;;;;;;0.20;0.10;;;12.60;63.30;;;;;;21169345;28;20043;-50
2021/05/20 08:54:22;;;;;;;0.38;0.00;;;12.70;64.30;;;;;;21169119;28;20473;-47
2021/05/20 09:04:26;;;;;;;0.00;0.00;;;12.80;65.50;;;;;;21168289;28;20055;-49
2021/05/20 09:14:29;;;;;;;0.10;0.00;;;12.90;62.90;;;;;;21167331;28;20077;-47
2021/05/20 09:24:52;;;;;;;0.00;0.00;;;13.40;64.60;;;;;;21167118;28;20105;-48
2021/05/20 09:35:00;;;;;;;0.00;0.00;;;13.80;63.70;;;;;;21165660;28;20256;-47
2021/05/20 09:45:07;;;;;;;0.63;0.05;;;14.60;61.90;;;;;;21206481;27;20047;-47
2021/05/20 09:55:20;;;;;;;0.30;0.00;;;16.20;65.50;;;;;;21230483;27;20084;-48
2021/05/20 10:05:28;;;;;;;0.60;0.00;;;16.20;59.90;;;;;;21249350;27;20434;-47
2021/05/20 10:15:31;;;;;;;0.10;0.00;;;16.70;61.40;;;;;;21247505;27;20039;-47
2021/05/20 10:25:34;;;;;;;0.15;0.10;;;16.90;67.40;;;;;;21209222;27;20051;-47
2021/05/20 10:35:43;;;;;;;1.65;0.10;;;17.50;59.30;;;;;;21159635;28;20044;-47
2021/05/20 10:46:23;;;;;;;2.00;0.10;;;17.70;61.50;;;;;;21160692;28;20039;-47
2021/05/20 10:56:33;;;;;;;0.00;0.00;;;17.50;69.10;;;;;;20948501;28;20052;-46
2021/05/20 11:06:35;;;;;;;0.25;0.00;;;17.30;54.40;;;;;;21157608;28;20032;-47
2021/05/20 11:16:37;;;;;;;0.75;0.00;;;15.90;58.90;;;;;;21157446;28;20040;-47
2021/05/20 11:26:39;;;;;;;0.20;0.00;;;15.30;60.90;;;;;;21156816;28;20069;-46
2021/05/20 11:36:43;;;;;;;0.00;0.00;;;14.90;64.20;;;;;;21156509;28;20089;-46
2021/05/20 11:47:04;;;;;;;0.47;0.10;;;15.30;71.80;;;;;;21155847;28;20096;-47
2021/05/20 11:57:08;;;;;;;0.10;0.00;;;15.60;63.10;;;;;;21155666;28;20055;-47
2021/05/20 12:07:24;;;;;;;0.10;0.00;;;16.90;63.90;;;;;;21155393;28;20040;-47
2021/05/20 12:17:26;;;;;;;2.53;0.10;;;17.60;66.80;;;;;;21155626;28;20043;-47
2021/05/20 12:27:43;;;;;;;0.10;0.10;;;19.70;63.80;;;;;;21155466;28;20040;-48
2021/05/20 12:38:07;;;;;;;1.40;0.10;;;19.40;69.00;;;;;;21136507;28;20109;-50
2021/05/20 12:48:22;;;;;;;1.75;0.30;;;19.70;61.90;;;;;;21153466;28;20052;-47
2021/05/20 12:58:24;;;;;;;1.15;0.85;;;20.50;65.30;;;;;;21166374;28;20044;-47
2021/05/20 13:08:28;;;;;;;3.80;2.50;;;20.00;61.90;;;;;;21169199;28;20035;-46
2021/05/20 13:29:04;;;;;;;5.30;3.03;;;17.40;64.60;;;;;;21110328;28;20108;-47
2021/05/20 13:39:06;;;;;;;4.32;3.70;;;15.10;67.10;;;;;;21164985;28;20058;-47
2021/05/20 13:49:08;;;;;;;4.30;3.25;;;14.30;71.60;;;;;;21087594;28;20098;-46
2021/05/20 13:59:10;;;;;;;3.38;2.67;;;14.00;74.40;;;;;;21061238;28;20040;-46
2021/05/20 14:09:11;;;;;;;3.15;2.10;;;14.00;72.70;;;;;;21077631;28;20044;-46
2021/05/20 14:19:13;;;;;;;2.08;1.17;;;14.90;65.90;;;;;;21077950;28;20515;-46
2021/05/20 14:29:15;;;;;;;2.08;0.90;;;14.40;68.30;;;;;;21144900;28;20052;-47
2021/05/20 14:39:17;;;;;;;1.92;0.80;;;13.70;72.10;;;;;;21160917;28;20066;-47
2021/05/20 15:10:25;;;;;;;1.55;1.17;;;22.30;55.70;;;;;;21159348;28;20369;-48
2021/05/20 15:20:22;;;;;;;1.95;1.42;;;23.20;52.40;;;;;;21157913;28;20071;-49
2021/05/20 15:30:25;;;;;;;1.35;1.25;;;23.50;49.90;;;;;;21156688;28;20043;-49
2021/05/20 15:40:27;;;;;;;1.88;1.50;;;22.70;54.20;;;;;;21156192;28;20105;-48
2021/05/20 15:50:29;;;;;;;3.35;1.90;;;20.00;53.40;;;;;;21137665;28;20058;-48
2021/05/20 16:00:32;;;;;;;2.65;1.83;;;18.90;52.10;;;;;;21157071;28;20047;-48
2021/05/20 16:10:44;;;;;;;2.95;2.42;;;19.40;57.70;;;;;;21156620;28;20039;-48
2021/05/20 16:20:47;;;;;;;4.28;2.33;;;17.60;56.30;;;;;;21154358;28;20608;-47
2021/05/20 16:41:10;;;;;;;2.92;2.20;;;14.40;63.70;;;;;;21170454;28;20489;-47
2021/05/20 16:51:13;;;;;;;4.88;2.45;;;12.80;69.10;;;;;;21171289;28;20031;-46
2021/05/20 17:01:18;;;;;;;3.65;2.58;;;11.60;71.50;;;;;;21169535;28;20455;-46
2021/05/20 17:11:20;;;;;;;4.18;2.80;;;10.70;80.10;;;;;;21169046;28;20073;-46
2021/05/20 17:21:22;;;;;;;5.75;2.97;;;9.70;89.80;;;;;;21166921;28;20039;-46
2021/05/20 17:31:24;;;;;;;4.07;2.85;;;9.00;92.10;;;;;;21165817;28;20048;-46
2021/05/20 17:41:25;;;;;;;4.30;2.90;;;8.50;94.40;;;;;;21146493;28;20043;-46
2021/05/20 17:51:27;;;;;;;4.85;2.80;;;8.10;96.30;;;;;;21165670;28;20044;-45
2021/05/20 18:01:29;;;;;;;4.65;2.70;;;8.00;95.00;;;;;;21164980;28;20043;-47
2021/05/20 18:32:00;;;;;;;4.68;3.00;;;7.30;99.10;;;;;;21144476;28;20089;-46
2021/05/20 18:42:03;;;;;;;7.55;3.70;;;6.90;99.90;;;;;;21161118;28;20502;-46
2021/05/20 18:52:07;;;;;;;5.75;3.78;;;6.70;99.90;;;;;;21159684;28;20513;-46
2021/05/20 19:02:09;;;;;;;6.32;3.28;;;6.50;99.90;;;;;;21159925;28;20061;-46
2021/05/20 19:12:12;;;;;;;4.65;2.90;;;6.10;99.90;;;;;;21159232;28;20049;-48
2021/05/20 19:22:30;;;;;;;4.40;2.63;;;5.90;99.90;;;;;;21137387;28;20039;-46
2021/05/20 19:32:33;;;;;;;4.85;2.42;;;5.80;99.90;;;;;;21158329;28;20040;-46
2021/05/20 19:42:35;;;;;;;3.97;2.70;;;5.60;99.90;;;;;;21158263;28;20080;-46
2021/05/20 19:52:54;;;;;;;3.92;2.60;;;5.60;99.90;;;;;;21156342;28;20093;-46
2021/05/20 20:03:01;;;;;;;6.53;2.22;;;5.80;99.90;;;;;;21163009;28;20106;-46
2021/05/20 20:13:04;;;;;;;3.17;1.88;;;5.70;99.90;;;;;;21173490;28;20040;-46
2021/05/20 20:23:08;;;;;;;3.05;1.80;;;5.80;99.20;;;;;;21171171;28;20386;-46
2021/05/20 20:43:18;;;;;;;2.88;1.60;;;5.80;99.90;;;;;;21169535;28;20425;-46
2021/05/20 20:53:20;;;;;;;4.22;1.98;;;5.80;99.40;;;;;;21169421;28;20461;-47
2021/05/20 21:03:23;;;;;;;1.65;1.20;;;5.70;99.90;;;;;;21169217;28;20484;-46
2021/05/20 21:13:26;;;;;;;3.63;1.73;;;5.70;99.40;;;;;;21167444;28;20044;-46
2021/05/20 21:23:28;;;;;;;3.58;1.85;;;5.40;99.30;;;;;;21166206;28;20096;-46
2021/05/20 21:33:30;;;;;;;4.38;2.00;;;5.30;99.90;;;;;;21168019;28;20048;-48
2021/05/20 21:43:32;;;;;;;3.08;1.90;;;5.10;99.90;;;;;;21164697;28;20359;-49
2021/05/20 21:53:34;;;;;;;3.03;1.90;;;5.10;99.90;;;;;;21165889;28;20092;-48
2021/05/20 22:03:36;;;;;;;2.90;1.90;;;5.20;99.90;;;;;;21147161;28;20052;-48
2021/05/20 22:23:45;;;;;;;3.05;1.85;;;5.10;99.90;;;;;;21161176;28;20077;-49
2021/05/20 22:33:48;;;;;;;1.70;1.30;;;5.10;99.90;;;;;;21161094;28;20489;-48
2021/05/20 22:43:51;;;;;;;2.00;1.48;;;5.20;99.90;;;;;;21160120;28;20035;-48
2021/05/20 22:53:53;;;;;;;4.32;1.45;;;5.50;98.80;;;;;;21159275;28;20031;-49
2021/05/20 23:03:54;;;;;;;2.90;1.30;;;5.80;97.20;;;;;;21140586;28;20043;-48
2021/05/20 23:13:56;;;;;;;2.17;1.40;;;6.10;97.20;;;;;;21159014;28;20127;-49
2021/05/20 23:23:58;;;;;;;3.05;1.77;;;6.20;97.30;;;;;;21139349;28;20039;-48
2021/05/20 23:34:05;;;;;;;3.90;2.35;;;6.40;96.30;;;;;;21157402;28;20036;-47
2021/05/20 23:44:12;;;;;;;6.85;3.15;;;6.70;97.30;;;;;;21156224;28;20044;-47
2021/05/20 23:54:14;;;;;;;4.68;2.90;;;7.20;97.10;;;;;;21137345;28;20397;-46
